Time;durP1;ratioP1;P1;durP2;ratioP2;P2;SDS_P1;SDS_P2;PMS_P1;PMS_P2;Temp;Humidity;BMP_temperature;BMP_pressure;BME280_temperature;BME280_humidity;BME280_pressure;Samples;Min_cycle;Max_cycle;Signal;HPM_P1;HPM_P2
2022/12/29 00:00:37;;;;;;;;;;;;;;;;;;6313640;22;19919;-96
2022/12/29 00:03:09;;;;;;;;;;;;;;;;;;6294370;22;19915;-95
2022/12/29 00:05:41;;;;;;;;;;;;;;;;;;6264662;22;19919;-94
2022/12/29 00:08:07;;;;;;;;;;;;;;;;;;6264780;22;19915;-94
2022/12/29 00:10:38;;;;;;;;;;;;;;;;;;6293889;22;19919;-89
2022/12/29 00:15:48;;;;;;;;;;;;;;;;;;6293268;22;19915;-95
2022/12/29 00:18:14;;;;;;;;;;;;;;;;;;6263373;22;19963;-92
2022/12/29 00:37:11;;;;;;;;;;;;;;;;;;6298793;22;19964;-91
2022/12/29 00:45:06;;;;;;;;;;;;;;;;;;6295218;22;19915;-94
2022/12/29 00:47:32;;;;;;;;;;;;;;;;;;6269695;22;20234;-95
2022/12/29 00:49:58;;;;;;;;;;;;;;;;;;6277863;22;19903;-90
2022/12/29 00:52:24;;;;;;;;;;;;;;;;;;6279552;22;19903;-94
2022/12/29 00:54:50;;;;;;;;;;;;;;;;;;6279800;22;19926;-93
2022/12/29 00:57:16;;;;;;;;;;;;;;;;;;6277600;22;19915;-89
2022/12/29 00:59:42;;;;;;;;;;;;;;;;;;6276839;22;19926;-95
2022/12/29 01:02:08;;;;;;;;;;;;;;;;;;6300488;22;19919;-95
2022/12/29 01:04:34;;;;;;;;;;;;;;;;;;6273968;22;20348;-94
2022/12/29 01:07:00;;;;;;;;;;;;;;;;;;6273496;22;19919;-96
2022/12/29 01:12:11;;;;;;;;;;;;;;;;;;6296574;22;19937;-94
2022/12/29 01:14:37;;;;;;;;;;;;;;;;;;6274600;22;19915;-92
2022/12/29 01:17:03;;;;;;;;;;;;;;;;;;6271217;22;19959;-95
2022/12/29 01:19:29;;;;;;;;;;;;;;;;;;6269916;22;19922;-95
2022/12/29 01:21:55;;;;;;;;;;;;;;;;;;6265667;22;19915;-95
2022/12/29 01:24:21;;;;;;;;;;;;;;;;;;6268031;22;19915;-94
2022/12/29 01:26:47;;;;;;;;;;;;;;;;;;6270993;22;19914;-95
2022/12/29 01:29:13;;;;;;;;;;;;;;;;;;6296203;22;19941;-93
2022/12/29 01:31:39;;;;;;;;;;;;;;;;;;6297602;22;19960;-95
2022/12/29 01:34:05;;;;;;;;;;;;;;;;;;6269731;22;19946;-90
2022/12/29 01:36:31;;;;;;;;;;;;;;;;;;6270286;22;19915;-95
2022/12/29 01:38:57;;;;;;;;;;;;;;;;;;6270377;22;19915;-92
2022/12/29 01:41:23;;;;;;;;;;;;;;;;;;6271240;22;19950;-94
2022/12/29 01:43:49;;;;;;;;;;;;;;;;;;6275794;22;19947;-93
2022/12/29 01:46:15;;;;;;;;;;;;;;;;;;6302161;22;19915;-94
2022/12/29 01:48:41;;;;;;;;;;;;;;;;;;6297318;22;19926;-94
2022/12/29 01:51:06;;;;;;;;;;;;;;;;;;6273173;22;19919;-95
2022/12/29 01:53:32;;;;;;;;;;;;;;;;;;6273198;22;19903;-92
2022/12/29 01:55:59;;;;;;;;;;;;;;;;;;6272493;22;19961;-93
2022/12/29 01:58:24;;;;;;;;;;;;;;;;;;6268444;22;19915;-90
2022/12/29 02:00:50;;;;;;;;;;;;;;;;;;6294470;22;19914;-95
2022/12/29 02:03:16;;;;;;;;;;;;;;;;;;6270643;22;19919;-94
2022/12/29 02:05:42;;;;;;;;;;;;;;;;;;6272877;22;19938;-95
2022/12/29 02:08:09;;;;;;;;;;;;;;;;;;6299699;22;19915;-94
2022/12/29 02:10:34;;;;;;;;;;;;;;;;;;6295826;22;19919;-96
2022/12/29 02:13:01;;;;;;;;;;;;;;;;;;6267560;22;19922;-95
2022/12/29 02:15:26;;;;;;;;;;;;;;;;;;6269306;22;19915;-94
2022/12/29 02:17:52;;;;;;;;;;;;;;;;;;6293908;22;19915;-93
2022/12/29 02:20:18;;;;;;;;;;;;;;;;;;6294924;22;19937;-95
2022/12/29 02:22:44;;;;;;;;;;;;;;;;;;6299157;22;19915;-96
2022/12/29 02:25:10;;;;;;;;;;;;;;;;;;6273352;22;20252;-95
2022/12/29 02:27:36;;;;;;;;;;;;;;;;;;6277609;22;19919;-96
2022/12/29 02:30:02;;;;;;;;;;;;;;;;;;6272538;22;19945;-94
2022/12/29 02:32:28;;;;;;;;;;;;;;;;;;6272404;22;19915;-96
2022/12/29 02:34:54;;;;;;;;;;;;;;;;;;6271417;22;19922;-95
2022/12/29 02:37:20;;;;;;;;;;;;;;;;;;6266882;22;19996;-95
2022/12/29 02:39:46;;;;;;;;;;;;;;;;;;6267376;22;19914;-93
2022/12/29 02:42:12;;;;;;;;;;;;;;;;;;6273266;22;20345;-95
2022/12/29 02:44:38;;;;;;;;;;;;;;;;;;6269503;22;19938;-93
2022/12/29 02:47:04;;;;;;;;;;;;;;;;;;6266401;22;19921;-95
2022/12/29 02:49:32;;;;;;;;;;;;;;;;;;6291647;22;19919;-89
2022/12/29 02:51:58;;;;;;;;;;;;;;;;;;6264797;22;19915;-96
2022/12/29 02:54:42;;;;;;;;;;;;;;;;;;6266922;22;20004;-95
2022/12/29 02:57:08;;;;;;;;;;;;;;;;;;6295244;22;19915;-93
2022/12/29 02:59:34;;;;;;;;;;;;;;;;;;6267239;22;19929;-94
2022/12/29 03:04:45;;;;;;;;;;;;;;;;;;6295593;22;19925;-94
2022/12/29 03:07:10;;;;;;;;;;;;;;;;;;6269549;22;20387;-93
2022/12/29 03:09:37;;;;;;;;;;;;;;;;;;6264595;22;19919;-92
2022/12/29 03:12:09;;;;;;;;;;;;;;;;;;6269006;22;19937;-91
2022/12/29 03:17:20;;;;;;;;;;;;;;;;;;6298251;22;19936;-91
2022/12/29 03:19:46;;;;;;;;;;;;;;;;;;6270060;22;19915;-95
2022/12/29 03:22:27;;;;;;;;;;;;;;;;;;6266315;22;19921;-96
2022/12/29 03:24:53;;;;;;;;;;;;;;;;;;6267025;22;20389;-93
2022/12/29 03:27:19;;;;;;;;;;;;;;;;;;6273975;22;19914;-92
2022/12/29 03:29:45;;;;;;;;;;;;;;;;;;6269348;22;19919;-95
2022/12/29 03:32:11;;;;;;;;;;;;;;;;;;6267100;22;19945;-94
2022/12/29 03:34:37;;;;;;;;;;;;;;;;;;6293150;22;19906;-96
2022/12/29 03:37:03;;;;;;;;;;;;;;;;;;6264904;22;19915;-95
2022/12/29 03:39:29;;;;;;;;;;;;;;;;;;6265401;22;19961;-96
2022/12/29 03:41:55;;;;;;;;;;;;;;;;;;6267256;22;19938;-93
2022/12/29 03:44:21;;;;;;;;;;;;;;;;;;6270779;22;19943;-96
2022/12/29 03:46:47;;;;;;;;;;;;;;;;;;6268888;22;19919;-94
2022/12/29 03:49:13;;;;;;;;;;;;;;;;;;6275291;22;19941;-93
2022/12/29 03:51:39;;;;;;;;;;;;;;;;;;6277314;22;19938;-93
2022/12/29 03:54:05;;;;;;;;;;;;;;;;;;6299156;22;19915;-91
2022/12/29 03:56:31;;;;;;;;;;;;;;;;;;6267054;22;19915;-95
2022/12/29 03:58:57;;;;;;;;;;;;;;;;;;6296685;22;19915;-91
2022/12/29 04:01:23;;;;;;;;;;;;;;;;;;6296678;22;19926;-93
2022/12/29 04:03:49;;;;;;;;;;;;;;;;;;6266191;22;19919;-93
2022/12/29 04:06:15;;;;;;;;;;;;;;;;;;6262819;22;19914;-96
2022/12/29 04:08:40;;;;;;;;;;;;;;;;;;6257257;22;19915;-92
2022/12/29 04:11:06;;;;;;;;;;;;;;;;;;6254932;22;19922;-93
2022/12/29 04:13:32;;;;;;;;;;;;;;;;;;6255152;22;19922;-91
2022/12/29 04:15:58;;;;;;;;;;;;;;;;;;6281291;22;20085;-93
2022/12/29 04:18:24;;;;;;;;;;;;;;;;;;6256192;22;19918;-91
2022/12/29 04:20:59;;;;;;;;;;;;;;;;;;6257785;22;19922;-95
2022/12/29 04:23:25;;;;;;;;;;;;;;;;;;6257640;22;19918;-93
2022/12/29 04:25:51;;;;;;;;;;;;;;;;;;6256916;22;19921;-93
2022/12/29 04:28:17;;;;;;;;;;;;;;;;;;6255763;22;19918;-94
2022/12/29 04:30:43;;;;;;;;;;;;;;;;;;6260636;22;19918;-95
2022/12/29 04:33:09;;;;;;;;;;;;;;;;;;6267520;22;19922;-93
2022/12/29 04:35:35;;;;;;;;;;;;;;;;;;6287828;22;19937;-93
2022/12/29 04:38:00;;;;;;;;;;;;;;;;;;6262689;22;19915;-96
2022/12/29 04:40:26;;;;;;;;;;;;;;;;;;6285645;22;19915;-95
2022/12/29 04:42:52;;;;;;;;;;;;;;;;;;6260024;22;20336;-95
2022/12/29 04:45:18;;;;;;;;;;;;;;;;;;6261025;22;19906;-94
2022/12/29 04:47:44;;;;;;;;;;;;;;;;;;6269151;22;19959;-95
2022/12/29 04:50:10;;;;;;;;;;;;;;;;;;6270584;22;19919;-94
2022/12/29 04:52:36;;;;;;;;;;;;;;;;;;6266833;22;19964;-94
2022/12/29 04:55:02;;;;;;;;;;;;;;;;;;6266317;22;19922;-95
2022/12/29 04:57:28;;;;;;;;;;;;;;;;;;6264018;22;19964;-92
2022/12/29 04:59:53;;;;;;;;;;;;;;;;;;6268597;22;19955;-95
2022/12/29 05:02:19;;;;;;;;;;;;;;;;;;6264783;22;19915;-93
2022/12/29 05:04:46;;;;;;;;;;;;;;;;;;6275152;22;19955;-95
2022/12/29 05:07:12;;;;;;;;;;;;;;;;;;6270111;22;20291;-91
2022/12/29 05:09:37;;;;;;;;;;;;;;;;;;6300777;22;19925;-92
2022/12/29 05:12:03;;;;;;;;;;;;;;;;;;6275009;22;19954;-96
2022/12/29 05:14:29;;;;;;;;;;;;;;;;;;6273460;22;19926;-95
2022/12/29 05:16:55;;;;;;;;;;;;;;;;;;6298292;22;20345;-95
2022/12/29 05:19:21;;;;;;;;;;;;;;;;;;6272903;22;19915;-96
2022/12/29 05:21:47;;;;;;;;;;;;;;;;;;6274949;22;20307;-94
2022/12/29 05:24:13;;;;;;;;;;;;;;;;;;6274264;22;20291;-96
2022/12/29 05:26:39;;;;;;;;;;;;;;;;;;6277350;22;19939;-93
2022/12/29 05:29:05;;;;;;;;;;;;;;;;;;6275737;22;19922;-95
2022/12/29 05:31:31;;;;;;;;;;;;;;;;;;6299048;22;19915;-94
2022/12/29 05:33:57;;;;;;;;;;;;;;;;;;6273165;22;19986;-93
2022/12/29 05:36:23;;;;;;;;;;;;;;;;;;6275510;22;19960;-94
2022/12/29 05:38:49;;;;;;;;;;;;;;;;;;6273266;22;19915;-94
2022/12/29 05:41:15;;;;;;;;;;;;;;;;;;6272700;22;19970;-95
2022/12/29 05:43:40;;;;;;;;;;;;;;;;;;6275143;22;19914;-91
2022/12/29 05:46:06;;;;;;;;;;;;;;;;;;6275004;22;19919;-95
2022/12/29 05:48:32;;;;;;;;;;;;;;;;;;6273609;22;20004;-96
2022/12/29 05:50:58;;;;;;;;;;;;;;;;;;6272785;22;19915;-96
2022/12/29 05:53:24;;;;;;;;;;;;;;;;;;6273185;22;19926;-94
2022/12/29 05:55:50;;;;;;;;;;;;;;;;;;6274380;22;20248;-94
2022/12/29 05:58:16;;;;;;;;;;;;;;;;;;6276440;22;19938;-95
2022/12/29 06:00:42;;;;;;;;;;;;;;;;;;6272661;22;19930;-89
2022/12/29 06:03:08;;;;;;;;;;;;;;;;;;6302188;22;19922;-92
2022/12/29 06:05:33;;;;;;;;;;;;;;;;;;6270809;22;19922;-92
2022/12/29 06:07:59;;;;;;;;;;;;;;;;;;6270426;22;19954;-94
2022/12/29 06:10:25;;;;;;;;;;;;;;;;;;6274823;22;19942;-94
2022/12/29 06:12:51;;;;;;;;;;;;;;;;;;6276204;22;19919;-92
2022/12/29 06:15:17;;;;;;;;;;;;;;;;;;6270906;22;19963;-95
2022/12/29 06:17:43;;;;;;;;;;;;;;;;;;6276898;22;19929;-95
2022/12/29 06:20:09;;;;;;;;;;;;;;;;;;6277328;22;19919;-94
2022/12/29 06:22:35;;;;;;;;;;;;;;;;;;6278058;22;19914;-93
2022/12/29 06:25:01;;;;;;;;;;;;;;;;;;6306344;22;19899;-95
2022/12/29 06:27:27;;;;;;;;;;;;;;;;;;6279943;22;19968;-92
2022/12/29 06:29:53;;;;;;;;;;;;;;;;;;6282516;22;19919;-93
2022/12/29 06:32:19;;;;;;;;;;;;;;;;;;6277357;22;19915;-90
2022/12/29 06:34:45;;;;;;;;;;;;;;;;;;6275392;22;20018;-95
2022/12/29 06:37:11;;;;;;;;;;;;;;;;;;6301769;22;19903;-95
2022/12/29 06:39:37;;;;;;;;;;;;;;;;;;6299703;22;19922;-93
2022/12/29 06:42:02;;;;;;;;;;;;;;;;;;6275028;22;19915;-91
2022/12/29 06:44:28;;;;;;;;;;;;;;;;;;6275812;22;19903;-91
2022/12/29 06:46:54;;;;;;;;;;;;;;;;;;6304494;22;19918;-89
2022/12/29 06:49:20;;;;;;;;;;;;;;;;;;6276206;22;20329;-90
2022/12/29 06:51:46;;;;;;;;;;;;;;;;;;6275466;22;19915;-96
2022/12/29 06:54:12;;;;;;;;;;;;;;;;;;6304778;22;19915;-95
2022/12/29 06:56:38;;;;;;;;;;;;;;;;;;6277272;22;19921;-93
2022/12/29 06:59:04;;;;;;;;;;;;;;;;;;6277105;22;19911;-94
2022/12/29 07:01:30;;;;;;;;;;;;;;;;;;6299217;22;19919;-89
2022/12/29 07:03:57;;;;;;;;;;;;;;;;;;6302985;22;19937;-91
2022/12/29 07:06:23;;;;;;;;;;;;;;;;;;6279028;22;19918;-95
2022/12/29 07:08:49;;;;;;;;;;;;;;;;;;6276359;22;19929;-88
2022/12/29 07:11:15;;;;;;;;;;;;;;;;;;6276755;22;20301;-92
2022/12/29 07:13:41;;;;;;;;;;;;;;;;;;6276341;22;20275;-95
2022/12/29 07:16:07;;;;;;;;;;;;;;;;;;6278333;22;19915;-91
2022/12/29 07:18:33;;;;;;;;;;;;;;;;;;6279632;22;20248;-89
2022/12/29 07:20:59;;;;;;;;;;;;;;;;;;6305929;22;19915;-96
2022/12/29 07:23:25;;;;;;;;;;;;;;;;;;6305447;22;19910;-95
2022/12/29 07:25:51;;;;;;;;;;;;;;;;;;6273753;22;19964;-91
2022/12/29 07:28:17;;;;;;;;;;;;;;;;;;6277631;22;19918;-96
2022/12/29 07:30:43;;;;;;;;;;;;;;;;;;6273515;22;19919;-94
2022/12/29 07:33:09;;;;;;;;;;;;;;;;;;6293035;22;19922;-96
2022/12/29 07:35:34;;;;;;;;;;;;;;;;;;6268565;22;19915;-95
2022/12/29 07:38:00;;;;;;;;;;;;;;;;;;6266728;22;19961;-94
2022/12/29 07:40:26;;;;;;;;;;;;;;;;;;6294415;22;19921;-93
2022/12/29 07:42:52;;;;;;;;;;;;;;;;;;6269789;22;19921;-95
2022/12/29 07:45:18;;;;;;;;;;;;;;;;;;6268952;22;19915;-94
2022/12/29 07:47:44;;;;;;;;;;;;;;;;;;6268273;22;19964;-95
2022/12/29 07:50:10;;;;;;;;;;;;;;;;;;6261769;22;19919;-94
2022/12/29 07:52:36;;;;;;;;;;;;;;;;;;6276942;22;19907;-90
2022/12/29 07:55:02;;;;;;;;;;;;;;;;;;6279693;22;19925;-95
2022/12/29 07:57:28;;;;;;;;;;;;;;;;;;6303843;22;19902;-95
2022/12/29 07:59:54;;;;;;;;;;;;;;;;;;6275719;22;19922;-96
2022/12/29 08:02:20;;;;;;;;;;;;;;;;;;6273922;22;19915;-89
2022/12/29 08:04:46;;;;;;;;;;;;;;;;;;6272159;22;19915;-94
2022/12/29 08:07:12;;;;;;;;;;;;;;;;;;6274719;22;19914;-94
2022/12/29 08:09:38;;;;;;;;;;;;;;;;;;6273246;22;19919;-93
2022/12/29 08:12:04;;;;;;;;;;;;;;;;;;6299694;22;19961;-93
2022/12/29 08:14:30;;;;;;;;;;;;;;;;;;6277569;22;19899;-91
2022/12/29 08:16:56;;;;;;;;;;;;;;;;;;6267489;22;19919;-96
2022/12/29 08:19:22;;;;;;;;;;;;;;;;;;6296381;22;19915;-93
2022/12/29 08:21:48;;;;;;;;;;;;;;;;;;6268039;22;20248;-96
2022/12/29 08:24:14;;;;;;;;;;;;;;;;;;6271763;22;19919;-90
2022/12/29 08:26:40;;;;;;;;;;;;;;;;;;6266117;22;19915;-93
2022/12/29 08:29:06;;;;;;;;;;;;;;;;;;6265053;22;19934;-95
2022/12/29 08:31:32;;;;;;;;;;;;;;;;;;6267126;22;19922;-91
2022/12/29 08:33:59;;;;;;;;;;;;;;;;;;6265980;22;19915;-94
2022/12/29 08:36:25;;;;;;;;;;;;;;;;;;6291669;22;19960;-93
2022/12/29 08:38:51;;;;;;;;;;;;;;;;;;6295392;22;19915;-93
2022/12/29 08:41:17;;;;;;;;;;;;;;;;;;6269181;22;19929;-93
2022/12/29 08:43:43;;;;;;;;;;;;;;;;;;6268470;22;19954;-94
2022/12/29 08:46:09;;;;;;;;;;;;;;;;;;6267094;22;20252;-96
2022/12/29 08:48:35;;;;;;;;;;;;;;;;;;6266798;22;19922;-94
2022/12/29 08:51:01;;;;;;;;;;;;;;;;;;6265138;22;20299;-96
2022/12/29 08:53:27;;;;;;;;;;;;;;;;;;6268533;22;19961;-96
2022/12/29 08:55:53;;;;;;;;;;;;;;;;;;6265987;22;19961;-96
2022/12/29 08:58:19;;;;;;;;;;;;;;;;;;6264092;22;19915;-96
2022/12/29 09:00:45;;;;;;;;;;;;;;;;;;6266511;22;19968;-96
2022/12/29 09:03:10;;;;;;;;;;;;;;;;;;6266708;22;19915;-96
2022/12/29 09:05:36;;;;;;;;;;;;;;;;;;6263256;22;19930;-96
2022/12/29 09:08:02;;;;;;;;;;;;;;;;;;6288128;22;19955;-93
2022/12/29 09:10:28;;;;;;;;;;;;;;;;;;6294727;22;19967;-94
2022/12/29 09:12:54;;;;;;;;;;;;;;;;;;6293408;22;19918;-93
2022/12/29 09:15:20;;;;;;;;;;;;;;;;;;6261814;22;19915;-94
2022/12/29 09:17:46;;;;;;;;;;;;;;;;;;6270280;22;19964;-92
2022/12/29 09:20:12;;;;;;;;;;;;;;;;;;6299293;22;19914;-95
2022/12/29 09:22:38;;;;;;;;;;;;;;;;;;6301801;22;19915;-96
2022/12/29 09:25:04;;;;;;;;;;;;;;;;;;6302662;22;20325;-90
2022/12/29 09:27:30;;;;;;;;;;;;;;;;;;6278691;22;20085;-95
2022/12/29 09:29:56;;;;;;;;;;;;;;;;;;6276290;22;19926;-91
2022/12/29 09:32:22;;;;;;;;;;;;;;;;;;6302961;22;19943;-96
2022/12/29 09:34:48;;;;;;;;;;;;;;;;;;6278462;22;19919;-91
2022/12/29 09:37:14;;;;;;;;;;;;;;;;;;6273181;22;19964;-96
2022/12/29 09:39:40;;;;;;;;;;;;;;;;;;6273318;22;19915;-91
2022/12/29 09:47:18;;;;;;;;;;;;;;;;;;6319096;22;19923;-96
2022/12/29 09:49:45;;;;;;;;;;;;;;;;;;6268321;22;19997;-95
2022/12/29 09:52:11;;;;;;;;;;;;;;;;;;6266120;22;19915;-93
2022/12/29 09:54:37;;;;;;;;;;;;;;;;;;6270219;22;19956;-92
2022/12/29 09:57:03;;;;;;;;;;;;;;;;;;6269710;22;19950;-93
2022/12/29 09:59:29;;;;;;;;;;;;;;;;;;6269995;22;19922;-92
2022/12/29 10:01:56;;;;;;;;;;;;;;;;;;6292128;22;19989;-93
2022/12/29 10:04:22;;;;;;;;;;;;;;;;;;6262481;22;19915;-96
2022/12/29 10:06:48;;;;;;;;;;;;;;;;;;6258630;22;20281;-95
2022/12/29 10:09:14;;;;;;;;;;;;;;;;;;6261308;22;19922;-93
2022/12/29 10:11:40;;;;;;;;;;;;;;;;;;6260510;22;19915;-94
2022/12/29 10:14:06;;;;;;;;;;;;;;;;;;6263947;22;19968;-96
2022/12/29 10:16:31;;;;;;;;;;;;;;;;;;6261915;22;19919;-96
2022/12/29 10:18:57;;;;;;;;;;;;;;;;;;6260598;22;19915;-96
2022/12/29 10:21:23;;;;;;;;;;;;;;;;;;6260236;22;19921;-94
2022/12/29 10:23:49;;;;;;;;;;;;;;;;;;6261136;22;19938;-96
2022/12/29 10:26:15;;;;;;;;;;;;;;;;;;6286916;22;19922;-96
2022/12/29 10:28:41;;;;;;;;;;;;;;;;;;6261058;22;20354;-96
2022/12/29 10:31:07;;;;;;;;;;;;;;;;;;6262451;22;20001;-95
2022/12/29 10:33:33;;;;;;;;;;;;;;;;;;6260311;22;19957;-93
2022/12/29 10:35:59;;;;;;;;;;;;;;;;;;6265247;22;19945;-96
2022/12/29 10:38:25;;;;;;;;;;;;;;;;;;6268860;22;19915;-93
2022/12/29 10:40:51;;;;;;;;;;;;;;;;;;6295875;22;19915;-92
2022/12/29 10:43:17;;;;;;;;;;;;;;;;;;6269312;22;19918;-95
2022/12/29 10:45:43;;;;;;;;;;;;;;;;;;6273593;22;19915;-96
2022/12/29 10:48:08;;;;;;;;;;;;;;;;;;6299140;22;19938;-94
2022/12/29 10:50:34;;;;;;;;;;;;;;;;;;6293352;22;19958;-96
2022/12/29 10:53:01;;;;;;;;;;;;;;;;;;6267356;22;20348;-95
2022/12/29 10:55:27;;;;;;;;;;;;;;;;;;6270228;22;19915;-93
2022/12/29 10:57:53;;;;;;;;;;;;;;;;;;6269296;22;19919;-90
2022/12/29 11:00:22;;;;;;;;;;;;;;;;;;6274119;22;19922;-91
2022/12/29 11:02:48;;;;;;;;;;;;;;;;;;6276008;22;19946;-92
2022/12/29 11:07:50;;;;;;;;;;;;;;;;;;6348207;22;19928;-94
2022/12/29 11:10:16;;;;;;;;;;;;;;;;;;6295340;22;19949;-95
2022/12/29 11:12:42;;;;;;;;;;;;;;;;;;6320902;22;20332;-96
2022/12/29 11:15:08;;;;;;;;;;;;;;;;;;6296079;22;19914;-96
2022/12/29 11:17:34;;;;;;;;;;;;;;;;;;6300022;22;19926;-94
2022/12/29 11:20:00;;;;;;;;;;;;;;;;;;6300436;22;19929;-95
2022/12/29 11:22:26;;;;;;;;;;;;;;;;;;6299238;22;19956;-95
2022/12/29 11:24:52;;;;;;;;;;;;;;;;;;6294501;22;20340;-94
2022/12/29 11:27:20;;;;;;;;;;;;;;;;;;6301835;22;19915;-96
2022/12/29 11:29:46;;;;;;;;;;;;;;;;;;6301241;22;19926;-95
2022/12/29 11:32:12;;;;;;;;;;;;;;;;;;6300867;22;19914;-96
2022/12/29 11:34:38;;;;;;;;;;;;;;;;;;6304012;22;19938;-94
2022/12/29 11:37:04;;;;;;;;;;;;;;;;;;6329094;22;19925;-93
2022/12/29 11:39:30;;;;;;;;;;;;;;;;;;6301027;22;19914;-95
2022/12/29 11:41:57;;;;;;;;;;;;;;;;;;6296584;22;19915;-93
2022/12/29 11:44:23;;;;;;;;;;;;;;;;;;6291234;22;19922;-95
2022/12/29 11:46:49;;;;;;;;;;;;;;;;;;6289266;22;19919;-95
2022/12/29 11:49:15;;;;;;;;;;;;;;;;;;6290334;22;19918;-94
2022/12/29 11:51:41;;;;;;;;;;;;;;;;;;6289666;22;19993;-95
2022/12/29 11:54:07;;;;;;;;;;;;;;;;;;6290505;22;19921;-94
2022/12/29 11:56:33;;;;;;;;;;;;;;;;;;6291582;22;19918;-93
2022/12/29 11:58:58;;;;;;;;;;;;;;;;;;6291464;22;19914;-96
2022/12/29 12:01:25;;;;;;;;;;;;;;;;;;6318120;22;20225;-96
2022/12/29 12:03:51;;;;;;;;;;;;;;;;;;6290375;22;20222;-96
2022/12/29 12:06:16;;;;;;;;;;;;;;;;;;6292035;22;19914;-96
2022/12/29 12:08:42;;;;;;;;;;;;;;;;;;6293234;22;19914;-96
2022/12/29 12:11:08;;;;;;;;;;;;;;;;;;6315451;22;20153;-96
2022/12/29 12:13:34;;;;;;;;;;;;;;;;;;6315267;22;19915;-96
2022/12/29 12:16:00;;;;;;;;;;;;;;;;;;6289878;22;19919;-96
2022/12/29 12:18:26;;;;;;;;;;;;;;;;;;6290414;22;19963;-94
2022/12/29 12:20:52;;;;;;;;;;;;;;;;;;6289675;22;20336;-95
2022/12/29 12:23:21;;;;;;;;;;;;;;;;;;6288407;22;20032;-96
2022/12/29 12:25:47;;;;;;;;;;;;;;;;;;6291203;22;19920;-95
2022/12/29 12:28:13;;;;;;;;;;;;;;;;;;6296527;22;19915;-93
2022/12/29 12:30:40;;;;;;;;;;;;;;;;;;6323717;22;19918;-96
2022/12/29 12:33:06;;;;;;;;;;;;;;;;;;6300939;22;19914;-93
2022/12/29 12:35:32;;;;;;;;;;;;;;;;;;6299800;22;20271;-96
2022/12/29 12:37:58;;;;;;;;;;;;;;;;;;6299318;22;19915;-95
2022/12/29 12:40:24;;;;;;;;;;;;;;;;;;6300020;22;20259;-94
2022/12/29 12:42:51;;;;;;;;;;;;;;;;;;6303470;22;19922;-96
2022/12/29 12:45:16;;;;;;;;;;;;;;;;;;6303656;22;20037;-93
2022/12/29 12:47:43;;;;;;;;;;;;;;;;;;6299816;22;19914;-96
2022/12/29 12:50:08;;;;;;;;;;;;;;;;;;6302266;22;19950;-95
2022/12/29 12:52:34;;;;;;;;;;;;;;;;;;6307337;22;19914;-93
2022/12/29 12:55:02;;;;;;;;;;;;;;;;;;6305707;22;19918;-92
2022/12/29 12:57:28;;;;;;;;;;;;;;;;;;6308006;22;19915;-93
2022/12/29 12:59:54;;;;;;;;;;;;;;;;;;6306775;22;19918;-90
2022/12/29 13:02:20;;;;;;;;;;;;;;;;;;6332915;22;20103;-96
2022/12/29 13:04:46;;;;;;;;;;;;;;;;;;6336306;22;19910;-94
2022/12/29 13:07:12;;;;;;;;;;;;;;;;;;6309842;22;19945;-96
2022/12/29 13:09:38;;;;;;;;;;;;;;;;;;6305958;22;19918;-96
2022/12/29 13:12:04;;;;;;;;;;;;;;;;;;6305519;22;20322;-96
2022/12/29 13:14:30;;;;;;;;;;;;;;;;;;6335603;22;20003;-95
2022/12/29 13:16:56;;;;;;;;;;;;;;;;;;6335713;22;19980;-93
2022/12/29 13:19:22;;;;;;;;;;;;;;;;;;6330815;22;19914;-93
2022/12/29 13:21:48;;;;;;;;;;;;;;;;;;6301815;22;20389;-92
2022/12/29 13:24:14;;;;;;;;;;;;;;;;;;6334216;22;20003;-95
2022/12/29 13:26:40;;;;;;;;;;;;;;;;;;6302266;22;20106;-94
2022/12/29 13:29:06;;;;;;;;;;;;;;;;;;6303686;22;20056;-91
2022/12/29 13:31:32;;;;;;;;;;;;;;;;;;6307984;22;19914;-95
2022/12/29 13:33:58;;;;;;;;;;;;;;;;;;6310441;22;19906;-94
2022/12/29 13:36:24;;;;;;;;;;;;;;;;;;6309480;22;19921;-91
2022/12/29 13:38:50;;;;;;;;;;;;;;;;;;6313079;22;19919;-87
2022/12/29 13:41:16;;;;;;;;;;;;;;;;;;6314285;22;19919;-95
2022/12/29 13:43:42;;;;;;;;;;;;;;;;;;6314217;22;19907;-91
2022/12/29 13:46:08;;;;;;;;;;;;;;;;;;6311232;22;19919;-93
2022/12/29 13:48:34;;;;;;;;;;;;;;;;;;6335030;22;19915;-95
2022/12/29 13:51:00;;;;;;;;;;;;;;;;;;6299743;22;19922;-96
2022/12/29 13:53:26;;;;;;;;;;;;;;;;;;6296821;22;19923;-93
2022/12/29 13:55:52;;;;;;;;;;;;;;;;;;6300786;22;19938;-95
2022/12/29 13:58:18;;;;;;;;;;;;;;;;;;6306292;22;19914;-95
2022/12/29 14:00:44;;;;;;;;;;;;;;;;;;6304946;22;19940;-93
2022/12/29 14:03:10;;;;;;;;;;;;;;;;;;6303925;22;20446;-92
2022/12/29 14:05:36;;;;;;;;;;;;;;;;;;6331858;22;19962;-96
2022/12/29 14:08:02;;;;;;;;;;;;;;;;;;6305165;22;20188;-94
2022/12/29 14:10:28;;;;;;;;;;;;;;;;;;6309200;22;19993;-94
2022/12/29 14:12:54;;;;;;;;;;;;;;;;;;6311645;22;19919;-93
2022/12/29 14:15:20;;;;;;;;;;;;;;;;;;6306578;22;19946;-91
2022/12/29 14:17:46;;;;;;;;;;;;;;;;;;6306023;22;19919;-95
2022/12/29 14:20:12;;;;;;;;;;;;;;;;;;6305743;22;20120;-94
2022/12/29 14:22:39;;;;;;;;;;;;;;;;;;6304915;22;20212;-96
2022/12/29 14:25:05;;;;;;;;;;;;;;;;;;6307861;22;19914;-95
2022/12/29 14:27:34;;;;;;;;;;;;;;;;;;6305844;22;19914;-94
2022/12/29 14:30:00;;;;;;;;;;;;;;;;;;6306780;22;19946;-92
2022/12/29 14:32:26;;;;;;;;;;;;;;;;;;6307916;22;19903;-95
2022/12/29 14:34:51;;;;;;;;;;;;;;;;;;6307473;22;19925;-91
2022/12/29 14:37:17;;;;;;;;;;;;;;;;;;6311843;22;19958;-94
2022/12/29 14:39:44;;;;;;;;;;;;;;;;;;6307234;22;19921;-96
2022/12/29 14:42:10;;;;;;;;;;;;;;;;;;6331372;22;19914;-96
2022/12/29 14:44:36;;;;;;;;;;;;;;;;;;6331635;22;19924;-94
2022/12/29 14:52:13;;;;;;;;;;;;;;;;;;6328343;22;19935;-89
2022/12/29 14:54:42;;;;;;;;;;;;;;;;;;6264797;22;19911;-93
2022/12/29 14:57:08;;;;;;;;;;;;;;;;;;6242584;22;19929;-93
2022/12/29 14:59:34;;;;;;;;;;;;;;;;;;6270237;22;19919;-95
2022/12/29 15:02:00;;;;;;;;;;;;;;;;;;6274064;22;19958;-90
2022/12/29 15:04:26;;;;;;;;;;;;;;;;;;6283137;22;19922;-92
2022/12/29 15:06:52;;;;;;;;;;;;;;;;;;6276335;22;19919;-95
2022/12/29 15:09:20;;;;;;;;;;;;;;;;;;6280015;22;19933;-93
2022/12/29 15:11:46;;;;;;;;;;;;;;;;;;6259374;22;19929;-91
2022/12/29 15:14:12;;;;;;;;;;;;;;;;;;6281361;22;19930;-95
2022/12/29 15:16:38;;;;;;;;;;;;;;;;;;6282297;22;19938;-93
2022/12/29 15:19:05;;;;;;;;;;;;;;;;;;6281439;22;19915;-91
2022/12/29 15:21:31;;;;;;;;;;;;;;;;;;6281594;22;19919;-91
2022/12/29 15:23:57;;;;;;;;;;;;;;;;;;6277302;22;19907;-87
2022/12/29 15:26:23;;;;;;;;;;;;;;;;;;6281976;22;19907;-88
2022/12/29 15:28:49;;;;;;;;;;;;;;;;;;6281508;22;19919;-87
2022/12/29 15:31:15;;;;;;;;;;;;;;;;;;6281491;22;20098;-91
2022/12/29 15:36:15;;;;;;;;;;;;;;;;;;6359834;22;19926;-93
2022/12/29 15:38:41;;;;;;;;;;;;;;;;;;6308279;22;19914;-95
2022/12/29 15:41:07;;;;;;;;;;;;;;;;;;6305593;22;19938;-93
2022/12/29 15:43:35;;;;;;;;;;;;;;;;;;6306249;22;20053;-92
2022/12/29 15:46:02;;;;;;;;;;;;;;;;;;6309489;22;19914;-93
2022/12/29 15:48:28;;;;;;;;;;;;;;;;;;6308743;22;19914;-93
2022/12/29 15:50:54;;;;;;;;;;;;;;;;;;6307069;22;19958;-90
2022/12/29 15:53:20;;;;;;;;;;;;;;;;;;6312392;22;19919;-92
2022/12/29 15:55:47;;;;;;;;;;;;;;;;;;6309194;22;19919;-90
2022/12/29 15:58:13;;;;;;;;;;;;;;;;;;6306899;22;19915;-88
2022/12/29 16:00:39;;;;;;;;;;;;;;;;;;6334496;22;19949;-94
2022/12/29 16:03:05;;;;;;;;;;;;;;;;;;6310716;22;19914;-96
2022/12/29 16:05:31;;;;;;;;;;;;;;;;;;6310553;22;19903;-91
2022/12/29 16:07:57;;;;;;;;;;;;;;;;;;6308568;22;19898;-96
2022/12/29 16:10:23;;;;;;;;;;;;;;;;;;6296960;22;19941;-96
2022/12/29 16:12:49;;;;;;;;;;;;;;;;;;6318882;22;19954;-96
2022/12/29 16:15:15;;;;;;;;;;;;;;;;;;6296081;22;20336;-96
2022/12/29 16:17:41;;;;;;;;;;;;;;;;;;6327887;22;19985;-93
2022/12/29 16:20:07;;;;;;;;;;;;;;;;;;6335332;22;19915;-96
2022/12/29 16:22:33;;;;;;;;;;;;;;;;;;6306849;22;20324;-96
2022/12/29 16:24:59;;;;;;;;;;;;;;;;;;6304448;22;19953;-96
2022/12/29 16:27:26;;;;;;;;;;;;;;;;;;6305740;22;19914;-90
2022/12/29 16:29:52;;;;;;;;;;;;;;;;;;6307823;22;19942;-92
2022/12/29 16:32:18;;;;;;;;;;;;;;;;;;6335040;22;19902;-91
2022/12/29 16:34:45;;;;;;;;;;;;;;;;;;6328869;22;19919;-93
2022/12/29 16:37:11;;;;;;;;;;;;;;;;;;6302013;22;19922;-92
2022/12/29 16:39:39;;;;;;;;;;;;;;;;;;6300705;22;19914;-94
2022/12/29 16:42:05;;;;;;;;;;;;;;;;;;6301231;22;19954;-95
2022/12/29 16:44:31;;;;;;;;;;;;;;;;;;6299553;22;19925;-93
2022/12/29 16:46:57;;;;;;;;;;;;;;;;;;6301105;22;20344;-93
2022/12/29 16:49:23;;;;;;;;;;;;;;;;;;6300844;22;19918;-95
2022/12/29 16:51:50;;;;;;;;;;;;;;;;;;6300870;22;19915;-93
2022/12/29 16:54:16;;;;;;;;;;;;;;;;;;6301103;22;19922;-93
2022/12/29 16:56:42;;;;;;;;;;;;;;;;;;6329958;22;19989;-93
2022/12/29 16:59:08;;;;;;;;;;;;;;;;;;6307236;22;19914;-92
2022/12/29 17:01:34;;;;;;;;;;;;;;;;;;6332946;22;20367;-90
2022/12/29 17:04:00;;;;;;;;;;;;;;;;;;6307212;22;19915;-95
2022/12/29 17:06:26;;;;;;;;;;;;;;;;;;6336514;22;19919;-93
2022/12/29 17:08:52;;;;;;;;;;;;;;;;;;6306494;22;19914;-92
2022/12/29 17:14:03;;;;;;;;;;;;;;;;;;6333806;22;20240;-92
2022/12/29 17:16:29;;;;;;;;;;;;;;;;;;6336474;22;19915;-95
2022/12/29 17:18:55;;;;;;;;;;;;;;;;;;6309956;22;19914;-91
2022/12/29 17:21:21;;;;;;;;;;;;;;;;;;6333229;22;19915;-95
2022/12/29 17:23:47;;;;;;;;;;;;;;;;;;6304105;22;19938;-96
2022/12/29 17:26:13;;;;;;;;;;;;;;;;;;6307575;22;19918;-93
2022/12/29 17:28:39;;;;;;;;;;;;;;;;;;6303842;22;19936;-93